Time;durP1;ratioP1;P1;durP2;ratioP2;P2;SDS_P1;SDS_P2;PMS_P1;PMS_P2;Temp;Humidity;BMP_temperature;BMP_pressure;BME280_temperature;BME280_humidity;BME280_pressure;Samples;Min_cycle;Max_cycle;Signal;HPM_P1;HPM_P2
2022/04/06 00:02:23;;;;;;;;;3.75;3.25;;;;;11.57;62.13;100526.03;5011171;28;45426;-84
2022/04/06 00:04:48;;;;;;;;;3.00;3.00;;;;;11.49;62.37;100505.63;5009988;28;45667;-83
2022/04/06 00:07:14;;;;;;;;;3.00;3.00;;;;;11.77;62.59;100542.38;5010452;28;45045;-83
2022/04/06 00:09:39;;;;;;;;;3.00;3.00;;;;;11.45;62.08;100493.25;5010104;28;45015;-83
2022/04/06 00:12:05;;;;;;;;;2.75;2.00;;;;;11.66;62.15;100540.28;5009747;28;45002;-83
2022/04/06 00:14:31;;;;;;;;;3.50;3.50;;;;;11.34;62.26;100485.06;5010810;28;45940;-82
2022/04/06 00:17:02;;;;;;;;;3.00;3.00;;;;;11.72;61.79;100548.34;5010008;28;45156;-83
2022/04/06 00:19:28;;;;;;;;;4.50;4.50;;;;;11.46;62.24;100500.28;5010792;28;45320;-83
2022/04/06 00:21:53;;;;;;;;;4.50;4.00;;;;;11.27;62.05;100472.56;5009977;28;45459;-83
2022/04/06 00:24:18;;;;;;;;;3.00;3.00;;;;;11.59;61.65;100523.47;5010112;28;45423;-82
2022/04/06 00:26:44;;;;;;;;;2.33;2.00;;;;;11.57;61.93;100525.13;4991530;28;45170;-83
2022/04/06 00:29:09;;;;;;;;;3.75;2.75;;;;;11.41;61.36;100499.25;5009646;28;45147;-83
2022/04/06 00:31:34;;;;;;;;;3.00;2.00;;;;;11.30;61.71;100486.72;5009988;28;45037;-83
2022/04/06 00:34:00;;;;;;;;;0.75;0.75;;;;;11.41;61.42;100510.69;4992160;28;47186;-82
2022/04/06 00:36:25;;;;;;;;;2.00;2.00;;;;;11.18;61.50;100489.03;5009861;28;45119;-82
2022/04/06 00:38:50;;;;;;;;;3.75;2.00;;;;;10.91;61.46;100454.94;5009808;28;45076;-83
2022/04/06 00:41:16;;;;;;;;;2.00;2.00;;;;;11.18;61.56;100509.13;4991785;28;45299;-84
2022/04/06 00:43:41;;;;;;;;;2.75;2.00;;;;;10.94;61.75;100477.81;5009424;28;45133;-82
2022/04/06 00:46:07;;;;;;;;;2.00;1.00;;;;;10.91;61.74;100468.06;5007603;28;45060;-83
2022/04/06 00:48:32;;;;;;;;;1.75;1.50;;;;;10.89;61.69;100476.78;5008007;28;45126;-82
2022/04/06 00:50:58;;;;;;;;;2.00;1.25;;;;;10.75;62.09;100469.38;5009360;28;45209;-82
2022/04/06 00:53:24;;;;;;;;;2.00;2.00;;;;;10.99;62.00;100520.91;5009912;28;45450;-83
2022/04/06 00:55:50;;;;;;;;;2.00;2.00;;;;;10.95;62.53;100516.38;4991621;28;45750;-83
2022/04/06 00:58:15;;;;;;;;;2.00;2.00;;;;;10.86;62.28;100511.75;5010091;28;45313;-83
2022/04/06 01:00:41;;;;;;;;;1.00;1.00;;;;;10.57;62.62;100451.31;5009555;28;45042;-83
2022/04/06 01:03:06;;;;;;;;;2.25;2.25;;;;;10.53;62.79;100467.81;5009120;28;45299;-83
2022/04/06 01:05:31;;;;;;;;;3.50;3.00;;;;;10.82;62.96;100520.38;4991365;28;45219;-83
2022/04/06 01:08:00;;;;;;;;;2.50;2.50;;;;;10.79;62.96;100520.31;4991504;28;45453;-83
2022/04/06 01:10:25;;;;;;;;;2.00;2.00;;;;;10.40;63.30;100447.31;5009580;28;45301;-83
2022/04/06 01:12:51;;;;;;;;;3.00;2.75;;;;;10.38;63.36;100448.97;4991074;28;47509;-82
2022/04/06 01:15:17;;;;;;;;;3.00;3.00;;;;;10.58;63.31;100483.72;4992022;28;45182;-83
2022/04/06 01:17:43;;;;;;;;;1.50;1.50;;;;;10.65;63.64;100508.47;5009106;28;45375;-83
2022/04/06 01:20:11;;;;;;;;;0.75;0.75;;;;;10.24;63.98;100448.53;5008683;28;45299;-82
2022/04/06 01:22:37;;;;;;;;;2.50;1.75;;;;;10.28;63.64;100457.41;5009469;28;45489;-83
2022/04/06 01:25:03;;;;;;;;;2.00;1.75;;;;;10.31;63.91;100473.28;5008731;28;45121;-83
2022/04/06 01:27:29;;;;;;;;;2.50;2.00;;;;;10.15;63.94;100448.25;5009264;28;45176;-83
2022/04/06 01:29:54;;;;;;;;;3.00;3.00;;;;;10.28;63.76;100478.44;5009342;28;45353;-83
2022/04/06 01:32:26;;;;;;;;;2.00;2.00;;;;;10.16;64.42;100457.03;4991369;28;46771;-83
2022/04/06 01:34:56;;;;;;;;;1.00;0.00;;;;;10.23;64.09;100480.88;5008432;28;45173;-82
2022/04/06 01:37:22;;;;;;;;;2.00;2.00;;;;;10.26;64.32;100481.03;5009515;28;45060;-83
2022/04/06 01:39:49;;;;;;;;;2.25;2.00;;;;;10.04;64.23;100452.25;5008711;28;45046;-83
2022/04/06 01:42:17;;;;;;;;;1.25;1.00;;;;;10.21;64.43;100482.56;5007914;28;46346;-82
2022/04/06 01:44:46;;;;;;;;;3.75;3.00;;;;;10.24;64.51;100493.19;5009075;28;45709;-83
2022/04/06 01:47:15;;;;;;;;;2.00;2.00;;;;;10.23;64.40;100491.38;5009359;28;45249;-84
2022/04/06 01:52:25;;;;;;;;;1.00;1.00;;;;;9.87;65.10;100440.34;5006843;28;45632;-83
2022/04/06 01:54:53;;;;;;;;;1.00;1.00;;;;;10.17;64.67;100491.19;5007917;28;45226;-83
2022/04/06 01:57:20;;;;;;;;;1.00;1.00;;;;;10.02;65.04;100464.44;5007972;28;45391;-83
2022/04/06 01:59:46;;;;;;;;;1.00;1.00;;;;;9.99;65.28;100459.97;4990951;28;45284;-82
2022/04/06 02:02:13;;;;;;;;;2.75;1.50;;;;;10.13;64.76;100493.66;5008670;28;45555;-83
2022/04/06 02:04:40;;;;;;;;;2.00;2.00;;;;;10.09;64.92;100483.06;5008236;28;45515;-82
2022/04/06 02:07:06;;;;;;;;;1.00;1.00;;;;;9.75;64.96;100423.34;5008809;28;45106;-82
2022/04/06 02:09:31;;;;;;;;;2.00;1.00;;;;;9.95;65.30;100454.56;5008404;28;45345;-83
2022/04/06 02:11:59;;;;;;;;;2.00;1.75;;;;;9.88;65.40;100452.59;5007505;28;45276;-83
2022/04/06 02:14:25;;;;;;;;;2.00;2.00;;;;;9.97;65.27;100473.91;5008300;28;45039;-83
2022/04/06 02:16:51;;;;;;;;;2.75;2.00;;;;;9.95;65.15;100478.19;5006341;28;45099;-82
2022/04/06 02:19:19;;;;;;;;;0.00;0.00;;;;;9.90;65.36;100462.34;4990587;28;45106;-83
2022/04/06 02:21:44;;;;;;;;;3.00;2.00;;;;;9.69;65.11;100437.97;5007940;28;45285;-82
2022/04/06 02:24:10;;;;;;;;;2.50;2.00;;;;;9.92;65.19;100476.38;5007972;28;45532;-82
2022/04/06 02:26:35;;;;;;;;;2.75;2.00;;;;;9.63;65.58;100415.06;5008001;28;45217;-82
2022/04/06 02:29:01;;;;;;;;;4.00;1.00;;;;;9.44;65.37;100375.94;5008065;28;45276;-81
2022/04/06 02:31:27;;;;;;;;;1.00;1.00;;;;;9.90;65.53;100449.22;5008101;28;46188;-82
2022/04/06 02:33:55;;;;;;;;;1.00;1.00;;;;;9.87;65.50;100416.72;5007504;28;45485;-83
2022/04/06 02:36:21;;;;;;;;;2.50;2.00;;;;;9.90;65.13;100416.78;5008881;28;44948;-83
2022/04/06 02:38:47;;;;;;;;;2.00;1.00;;;;;10.25;65.14;100459.97;4990440;28;45604;-82
2022/04/06 02:41:12;;;;;;;;;1.00;1.00;;;;;9.99;65.05;100403.94;5007098;28;45189;-82
2022/04/06 02:43:38;;;;;;;;;1.00;1.00;;;;;10.07;64.68;100408.59;5007942;28;45204;-83
2022/04/06 02:46:03;;;;;;;;;1.00;1.00;;;;;10.20;64.60;100412.53;5007638;28;45107;-82
2022/04/06 02:48:29;;;;;;;;;2.00;1.25;;;;;10.41;64.36;100435.94;5007747;28;45082;-82
2022/04/06 02:50:54;;;;;;;;;1.00;1.00;;;;;10.49;64.29;100449.28;5007563;28;45610;-83
2022/04/06 02:53:20;;;;;;;;;1.00;1.00;;;;;10.33;64.09;100424.31;5007871;28;45275;-83
2022/04/06 02:55:46;;;;;;;;;2.00;1.75;;;;;10.34;64.71;100415.56;5007881;28;45210;-82
2022/04/06 02:58:11;;;;;;;;;1.00;1.00;;;;;10.20;64.24;100385.38;5007959;28;45342;-83
2022/04/06 03:00:37;;;;;;;;;2.75;1.75;;;;;10.35;64.22;100392.84;5008216;28;45431;-83
2022/04/06 03:03:03;;;;;;;;;1.00;1.00;;;;;10.43;64.26;100407.09;5007369;28;45029;-83
2022/04/06 03:05:28;;;;;;;;;1.25;1.00;;;;;10.09;64.12;100343.00;5008373;28;45247;-83
2022/04/06 03:07:53;;;;;;;;;1.00;1.00;;;;;10.35;64.15;100377.09;5007652;28;45186;-82
2022/04/06 03:10:19;;;;;;;;;1.00;1.00;;;;;10.39;63.80;100390.31;5007184;28;45258;-83
2022/04/06 03:12:45;;;;;;;;;1.00;1.00;;;;;10.63;63.94;100426.06;5007415;28;45252;-83
2022/04/06 03:15:11;;;;;;;;;1.50;1.00;;;;;10.64;63.86;100425.19;5007634;28;45259;-83
2022/04/06 03:17:37;;;;;;;;;1.25;1.25;;;;;10.63;63.88;100424.31;5007509;28;45337;-83
2022/04/06 03:20:05;;;;;;;;;1.00;1.00;;;;;10.42;63.67;100381.66;5007971;28;45454;-83
2022/04/06 03:22:30;;;;;;;;;1.00;1.00;;;;;10.30;64.02;100375.22;5007877;28;45436;-83
2022/04/06 03:24:56;;;;;;;;;2.50;1.75;;;;;10.11;63.92;100343.97;5008089;28;45089;-82
2022/04/06 03:27:21;;;;;;;;;1.75;1.00;;;;;10.45;64.13;100394.91;5011182;28;45111;-83
2022/04/06 03:29:47;;;;;;;;;3.50;3.00;;;;;10.50;64.24;100411.69;5010900;28;45655;-83
2022/04/06 03:32:12;;;;;;;;;2.25;2.25;;;;;10.02;64.28;100335.81;5010964;28;45271;-83
2022/04/06 03:34:38;;;;;;;;;2.25;2.25;;;;;10.14;64.53;100367.66;5011111;28;45054;-83
2022/04/06 03:37:03;;;;;;;;;1.00;1.00;;;;;10.06;64.51;100359.56;4992616;28;45203;-84
2022/04/06 03:39:29;;;;;;;;;1.00;0.00;;;;;10.18;64.36;100389.66;5010091;28;45230;-83
2022/04/06 03:41:54;;;;;;;;;1.00;1.00;;;;;9.95;64.65;100362.69;5010987;28;45201;-83
2022/04/06 03:44:19;;;;;;;;;0.75;0.75;;;;;9.99;64.73;100383.84;5011615;28;45093;-82
2022/04/06 03:46:45;;;;;;;;;1.00;1.00;;;;;9.93;64.98;100386.28;5010919;28;45100;-82
2022/04/06 03:49:10;;;;;;;;;1.75;1.75;;;;;9.66;65.35;100341.72;5010385;28;45273;-82
2022/04/06 03:51:36;;;;;;;;;0.00;0.00;;;;;9.64;65.31;100353.88;5009377;28;45067;-83
2022/04/06 03:54:01;;;;;;;;;0.75;0.75;;;;;9.95;65.36;100404.69;4992853;28;45161;-83
2022/04/06 03:56:27;;;;;;;;;1.75;1.75;;;;;9.59;65.53;100352.81;5010435;28;45172;-83
2022/04/06 03:58:52;;;;;;;;;2.00;2.00;;;;;9.52;65.34;100348.25;5010345;28;46090;-83
2022/04/06 04:01:18;;;;;;;;;1.00;1.00;;;;;9.78;65.81;100397.19;5010875;28;45160;-83
2022/04/06 04:03:43;;;;;;;;;1.75;1.00;;;;;9.46;65.85;100348.06;5009912;28;45029;-83
2022/04/06 04:06:08;;;;;;;;;1.50;1.50;;;;;9.60;66.08;100364.22;5010964;28;45110;-82
2022/04/06 04:08:34;;;;;;;;;2.50;2.50;;;;;9.69;66.00;100362.78;5009774;28;45507;-82
2022/04/06 04:10:59;;;;;;;;;2.67;2.00;;;;;9.66;65.95;100353.94;4991670;28;45114;-83
2022/04/06 04:13:24;;;;;;;;;2.75;2.25;;;;;9.62;65.72;100339.81;5010709;28;45118;-82
2022/04/06 04:15:50;;;;;;;;;1.00;1.00;;;;;9.76;65.91;100371.75;4992467;28;45337;-82
2022/04/06 04:18:16;;;;;;;;;2.00;2.00;;;;;9.92;66.15;100386.25;5010226;28;46309;-83
2022/04/06 04:20:45;;;;;;;;;2.50;2.00;;;;;9.74;65.95;100348.06;5010274;28;45473;-83
2022/04/06 04:23:11;;;;;;;;;1.50;1.50;;;;;9.93;65.96;100373.16;5010914;28;45346;-84
2022/04/06 04:25:39;;;;;;;;;2.00;1.00;;;;;9.90;65.92;100345.91;4990388;28;45028;-83
2022/04/06 04:28:05;;;;;;;;;4.50;3.50;;;;;9.79;66.09;100316.72;5010334;28;46016;-82
2022/04/06 04:30:31;;;;;;;;;2.00;2.00;;;;;10.08;65.78;100362.22;5010467;28;45137;-82
2022/04/06 04:32:56;;;;;;;;;1.25;1.25;;;;;10.00;65.88;100334.84;5023595;28;45320;-84
2022/04/06 04:35:22;;;;;;;;;2.00;2.00;;;;;9.97;66.29;100319.03;5018152;28;45006;-83
2022/04/06 04:37:47;;;;;;;;;2.00;1.00;;;;;10.21;65.63;100361.75;5010143;28;45771;-83
2022/04/06 04:40:16;;;;;;;;;1.00;1.00;;;;;10.24;65.54;100346.13;4991697;28;45448;-85
2022/04/06 04:42:41;;;;;;;;;3.00;2.75;;;;;10.04;65.42;100311.34;5010004;28;45272;-84
2022/04/06 04:45:08;;;;;;;;;1.75;1.25;;;;;9.98;65.52;100291.91;5009821;28;45204;-84
2022/04/06 04:47:34;;;;;;;;;1.75;1.75;;;;;10.03;65.44;100298.19;5009890;28;45247;-84
2022/04/06 04:50:00;;;;;;;;;3.75;3.75;;;;;10.04;65.83;100295.59;5009237;28;45266;-83
2022/04/06 04:52:25;;;;;;;;;4.50;4.00;;;;;10.42;65.73;100361.53;4990004;28;45557;-84
2022/04/06 04:54:50;;;;;;;;;3.00;2.00;;;;;10.14;65.31;100303.75;5008614;28;45273;-83
2022/04/06 04:57:16;;;;;;;;;5.00;4.00;;;;;10.45;65.43;100352.88;4991786;28;48173;-84
2022/04/06 04:59:41;;;;;;;;;3.00;3.00;;;;;10.19;65.47;100310.91;5008643;28;45269;-83
2022/04/06 05:02:06;;;;;;;;;3.33;3.00;;;;;10.08;65.42;100289.59;4991123;28;45310;-83
2022/04/06 05:04:32;;;;;;;;;4.75;3.25;;;;;10.40;65.49;100336.97;5010018;28;45072;-83
2022/04/06 05:06:57;;;;;;;;;5.00;5.00;;;;;10.16;65.83;100289.84;4991541;28;46940;-83
2022/04/06 05:09:22;;;;;;;;;5.75;5.00;;;;;10.21;65.72;100298.75;5008924;28;45704;-83
2022/04/06 05:11:48;;;;;;;;;5.00;4.67;;;;;10.25;65.56;100305.91;5009405;28;45086;-83
2022/04/06 05:14:13;;;;;;;;;7.50;7.25;;;;;10.14;65.93;100286.25;5009819;28;45291;-84
2022/04/06 05:16:39;;;;;;;;;9.25;9.00;;;;;10.18;66.18;100298.63;5009385;28;45331;-83
2022/04/06 05:19:04;;;;;;;;;8.00;6.00;;;;;10.19;66.04;100299.53;4991498;28;45307;-83
2022/04/06 05:21:30;;;;;;;;;4.00;4.00;;;;;10.35;66.08;100324.56;5010017;28;45050;-84
2022/04/06 05:23:57;;;;;;;;;3.50;3.00;;;;;10.16;65.88;100302.97;4991510;28;45472;-84
2022/04/06 05:26:22;;;;;;;;;4.00;4.00;;;;;10.44;65.80;100343.19;5005200;28;46378;-82
2022/04/06 05:28:47;;;;;;;;;4.50;4.00;;;;;10.21;66.05;100313.59;5001674;28;45464;-84
2022/04/06 05:31:13;;;;;;;;;5.00;3.00;;;;;10.08;65.81;100286.97;4992127;28;45200;-84
2022/04/06 05:33:38;;;;;;;;;5.00;3.50;;;;;10.20;65.84;100307.47;4991802;28;45380;-84
2022/04/06 05:36:04;;;;;;;;;5.33;5.00;;;;;10.25;66.45;100311.16;4986546;28;47616;-83
2022/04/06 05:38:30;;;;;;;;;5.75;4.25;;;;;10.31;66.08;100331.44;4998620;28;45281;-83
2022/04/06 05:40:56;;;;;;;;;4.00;3.00;;;;;10.25;65.84;100305.91;4981633;28;45232;-84
2022/04/06 05:43:21;;;;;;;;;3.50;3.00;;;;;10.08;65.88;100288.72;5003250;28;45138;-84
2022/04/06 05:45:46;;;;;;;;;4.50;3.50;;;;;10.08;65.70;100281.72;4987292;28;48758;-84
2022/04/06 05:48:12;;;;;;;;;3.25;3.25;;;;;10.38;65.47;100343.91;4998984;28;45069;-84
2022/04/06 05:50:38;;;;;;;;;3.00;3.00;;;;;10.13;65.73;100286.22;5004255;28;45289;-84
2022/04/06 05:53:03;;;;;;;;;4.25;4.00;;;;;10.28;65.66;100310.34;4989615;28;45470;-84
2022/04/06 05:55:28;;;;;;;;;4.00;3.25;;;;;10.48;65.97;100329.28;4998567;28;45859;-82
2022/04/06 05:57:54;;;;;;;;;3.75;3.25;;;;;10.48;65.55;100330.16;4995178;28;45426;-83
2022/04/06 06:00:19;;;;;;;;;4.00;4.00;;;;;10.24;65.54;100298.84;4991177;28;45734;-84
2022/04/06 06:02:45;;;;;;;;;5.00;3.00;;;;;10.32;65.59;100315.72;4989649;28;45474;-82
2022/04/06 06:05:10;;;;;;;;;3.75;2.75;;;;;10.53;65.51;100339.06;4991648;28;45884;-83
2022/04/06 06:07:36;;;;;;;;;4.25;3.00;;;;;10.25;65.67;100287.50;4988542;28;45152;-82
2022/04/06 06:10:02;;;;;;;;;3.50;3.00;;;;;10.32;65.59;100299.06;4984484;28;45754;-85
2022/04/06 06:12:29;;;;;;;;;3.00;2.25;;;;;10.20;65.55;100265.44;4979627;28;45242;-84
2022/04/06 06:14:54;;;;;;;;;2.25;2.00;;;;;10.45;65.33;100308.19;4993514;28;45180;-85
2022/04/06 06:17:19;;;;;;;;;3.00;3.00;;;;;9.81;65.59;100197.84;4991419;28;45330;-82
2022/04/06 06:19:45;;;;;;;;;2.25;2.25;;;;;10.40;65.50;100299.31;4994163;28;45503;-83
2022/04/06 06:22:10;;;;;;;;;2.33;2.33;;;;;10.26;65.17;100262.13;4984398;28;45925;-84
2022/04/06 06:24:35;;;;;;;;;3.00;3.00;;;;;10.61;65.33;100331.41;4986754;28;45994;-82
2022/04/06 06:27:01;;;;;;;;;2.25;2.25;;;;;10.35;65.23;100279.91;4983348;28;45798;-82
2022/04/06 06:29:26;;;;;;;;;2.25;2.00;;;;;10.33;65.59;100272.84;4987521;28;46084;-83
2022/04/06 06:31:51;;;;;;;;;2.75;2.50;;;;;10.53;65.52;100302.28;4969275;28;45400;-82
2022/04/06 06:34:16;;;;;;;;;3.00;3.00;;;;;10.38;65.47;100264.19;4972381;28;47569;-82
2022/04/06 06:36:42;;;;;;;;;3.00;3.00;;;;;10.31;65.37;100244.75;4994699;28;45261;-82
2022/04/06 06:39:08;;;;;;;;;3.00;3.00;;;;;10.07;65.23;100200.28;5006134;28;45394;-83
2022/04/06 06:41:35;;;;;;;;;3.00;2.00;;;;;10.41;65.24;100253.78;4992445;28;45780;-83
2022/04/06 06:44:01;;;;;;;;;3.00;3.00;;;;;10.58;65.31;100274.41;5008009;28;45388;-81
2022/04/06 06:46:27;;;;;;;;;2.00;2.00;;;;;10.53;65.40;100256.72;4998317;28;45875;-81
2022/04/06 06:48:54;;;;;;;;;3.00;3.00;;;;;10.61;65.12;100276.22;4986420;28;45244;-82
2022/04/06 06:51:19;;;;;;;;;3.00;3.00;;;;;10.94;65.07;100314.78;4995259;28;45484;-80
2022/04/06 06:53:47;;;;;;;;;3.75;3.75;;;;;10.63;64.98;100257.88;5006149;28;45634;-82
2022/04/06 06:56:20;;;;;;;;;2.00;2.00;;;;;10.59;64.65;100243.78;5004778;28;45583;-83
2022/04/06 06:58:46;;;;;;;;;2.50;2.50;;;;;10.85;64.78;100295.28;5002534;28;45648;-87
2022/04/06 07:01:11;;;;;;;;;3.33;3.00;;;;;10.76;65.05;100274.00;5012665;28;45178;-86
2022/04/06 07:03:36;;;;;;;;;3.00;2.33;;;;;10.57;64.91;100234.94;5005280;28;45628;-84
2022/04/06 07:06:02;;;;;;;;;2.00;2.00;;;;;10.91;64.56;100280.50;4987544;28;45256;-88
2022/04/06 07:08:27;;;;;;;;;3.00;3.00;;;;;10.21;64.35;100150.78;4994873;28;45303;-86
2022/04/06 07:10:54;;;;;;;;;4.00;3.25;;;;;11.17;64.63;100312.72;4992006;28;45192;-87
2022/04/06 07:13:19;;;;;;;;;3.00;2.00;;;;;10.62;64.54;100216.69;4997445;28;47176;-84
2022/04/06 07:15:50;;;;;;;;;2.75;2.75;;;;;10.99;64.54;100269.34;4991917;28;45103;-89
2022/04/06 07:18:20;;;;;;;;;2.00;2.00;;;;;10.76;64.23;100228.44;5018961;28;45172;-87
2022/04/06 07:20:45;;;;;;;;;3.50;3.25;;;;;10.32;63.96;100142.34;4992976;28;45093;-83
2022/04/06 07:23:10;;;;;;;;;2.00;2.00;;;;;10.72;64.32;100198.53;5003211;28;45629;-83
2022/04/06 07:25:36;;;;;;;;;3.00;3.00;;;;;11.17;64.17;100271.53;5008018;28;45416;-82
2022/04/06 07:28:03;;;;;;;;;3.00;2.75;;;;;11.38;64.15;100300.13;5010118;28;45525;-84
2022/04/06 07:30:29;;;;;;;;;4.75;3.75;;;;;11.01;63.76;100228.19;5006553;28;45340;-87
2022/04/06 07:32:56;;;;;;;;;1.50;1.50;;;;;11.04;63.59;100228.28;4992237;28;46713;-82
2022/04/06 07:35:22;;;;;;;;;4.00;4.00;;;;;10.87;63.60;100197.16;5012010;28;45387;-84
2022/04/06 07:37:48;;;;;;;;;4.00;4.00;;;;;11.00;63.37;100220.28;5014343;28;45999;-88
2022/04/06 07:40:19;;;;;;;;;3.75;3.50;;;;;11.47;63.46;100291.53;4993108;28;45235;-86
2022/04/06 07:42:52;;;;;;;;;2.25;2.00;;;;;11.51;63.47;100294.28;4988198;28;47480;-84
2022/04/06 07:45:19;;;;;;;;;4.50;3.50;;;;;11.16;63.52;100226.78;5008488;28;45493;-82
2022/04/06 07:47:46;;;;;;;;;4.50;4.25;;;;;11.61;63.48;100288.34;4993845;28;45411;-84
2022/04/06 07:50:13;;;;;;;;;5.00;4.75;;;;;11.01;63.37;100177.34;5005365;28;45916;-82
2022/04/06 07:52:39;;;;;;;;;3.00;2.25;;;;;11.28;63.15;100225.34;5003524;28;46017;-81
2022/04/06 07:55:07;;;;;;;;;3.00;2.75;;;;;11.21;62.85;100204.09;4997971;28;45560;-82
2022/04/06 07:57:33;;;;;;;;;3.00;2.00;;;;;11.66;63.17;100288.47;5004247;28;45378;-84
2022/04/06 08:00:03;;;;;;;;;2.25;2.25;;;;;11.22;62.93;100214.66;5011078;28;45668;-82
2022/04/06 08:02:28;;;;;;;;;1.00;0.75;;;;;11.56;62.98;100262.78;5001681;28;45481;-83
2022/04/06 08:04:53;;;;;;;;;2.25;1.00;;;;;11.11;63.04;100192.47;4995148;28;45126;-82
2022/04/06 08:07:19;;;;;;;;;4.00;4.00;;;;;11.52;62.90;100248.66;5008839;28;45220;-82
2022/04/06 08:09:44;;;;;;;;;5.25;4.00;;;;;11.72;62.89;100278.06;5001304;28;45341;-81
2022/04/06 08:12:09;;;;;;;;;3.50;2.00;;;;;11.20;62.97;100174.28;5009225;28;45175;-83
2022/04/06 08:14:35;;;;;;;;;2.50;2.50;;;;;11.03;62.94;100123.03;5009484;28;45209;-83
2022/04/06 08:17:00;;;;;;;;;4.00;4.00;;;;;11.53;62.82;100199.59;5007608;28;45211;-83
2022/04/06 08:19:26;;;;;;;;;4.25;4.00;;;;;11.54;62.70;100193.47;4996453;28;45272;-80
2022/04/06 08:21:52;;;;;;;;;3.50;3.00;;;;;11.90;62.56;100264.47;5003517;28;45154;-82
2022/04/06 08:24:18;;;;;;;;;3.25;2.50;;;;;11.72;62.64;100214.88;4991558;28;45662;-83
2022/04/06 08:26:43;;;;;;;;;2.75;2.75;;;;;11.61;62.41;100201.50;4990602;28;45165;-81
2022/04/06 08:29:09;;;;;;;;;3.00;3.00;;;;;11.89;62.54;100246.91;5015793;28;45367;-82
2022/04/06 08:31:35;;;;;;;;;3.50;3.00;;;;;11.96;62.57;100259.31;5005965;28;45770;-82
2022/04/06 08:34:00;;;;;;;;;4.00;4.00;;;;;11.94;62.48;100245.25;5003508;28;45263;-83
2022/04/06 08:36:29;;;;;;;;;4.00;3.00;;;;;12.05;62.40;100263.91;5009564;28;45212;-82
2022/04/06 08:38:55;;;;;;;;;5.75;5.00;;;;;11.54;62.39;100162.75;4993562;28;45535;-83
2022/04/06 08:41:24;;;;;;;;;4.00;4.00;;;;;11.61;62.67;100164.66;5009144;28;45936;-81
2022/04/06 08:43:50;;;;;;;;;6.75;5.75;;;;;11.78;62.19;100186.09;5000697;28;45280;-81
2022/04/06 08:46:17;;;;;;;;;7.00;5.50;;;;;11.59;61.84;100155.84;5008442;28;45366;-82
2022/04/06 08:48:47;;;;;;;;;5.50;5.25;;;;;11.66;62.31;100166.50;5003625;28;45649;-84
2022/04/06 08:51:15;;;;;;;;;5.75;5.00;;;;;11.62;62.02;100142.75;5008820;28;45628;-82
2022/04/06 08:53:41;;;;;;;;;5.75;5.00;;;;;12.04;61.93;100209.44;5002709;28;45947;-82
2022/04/06 08:56:07;;;;;;;;;4.00;3.50;;;;;12.09;62.10;100218.34;5003116;28;45183;-84
2022/04/06 08:58:33;;;;;;;;;4.50;3.75;;;;;12.05;62.05;100192.78;5005868;28;45503;-82
2022/04/06 09:00:58;;;;;;;;;5.25;5.00;;;;;12.37;62.10;100232.94;5005081;28;45548;-82
2022/04/06 09:03:24;;;;;;;;;3.75;3.75;;;;;12.12;61.97;100176.25;5014653;28;45349;-82
2022/04/06 09:06:05;;;;;;;;;10.00;7.25;;;;;12.47;61.73;100220.81;5005953;28;45243;-81
2022/04/06 09:08:40;;;;;;;;;7.00;4.25;;;;;12.40;61.60;100206.63;5015603;28;45466;-82
2022/04/06 09:11:08;;;;;;;;;3.50;3.50;;;;;12.47;61.39;100205.91;5006968;28;46162;-83
2022/04/06 09:13:33;;;;;;;;;6.00;5.00;;;;;12.58;61.56;100220.16;5004491;28;45680;-82
2022/04/06 09:16:00;;;;;;;;;5.25;4.00;;;;;12.83;61.70;100233.75;5003610;28;45217;-81
2022/04/06 09:18:51;;;;;;;;;4.75;3.50;;;;;12.97;61.17;100242.81;4977646;28;45401;-83
2022/04/06 09:21:18;;;;;;;;;3.75;3.50;;;;;13.02;60.45;100238.47;4993566;28;46459;-83
2022/04/06 09:23:51;;;;;;;;;4.50;4.00;;;;;13.08;60.82;100240.34;5007082;28;45169;-87
2022/04/06 09:26:22;;;;;;;;;4.25;4.00;;;;;12.46;60.64;100138.19;5006857;28;45591;-82
2022/04/06 09:28:51;;;;;;;;;5.00;4.25;;;;;13.02;60.33;100238.47;5018072;28;45626;-85
2022/04/06 09:31:18;;;;;;;;;5.00;5.00;;;;;13.02;60.64;100245.50;4996298;28;46491;-84
2022/04/06 09:33:58;;;;;;;;;3.50;3.50;;;;;12.80;61.04;100188.88;5003144;28;45682;-85
2022/04/06 09:36:27;;;;;;;;;6.50;5.00;;;;;12.45;60.81;100119.75;4983288;28;45316;-87
2022/04/06 09:38:52;;;;;;;;;4.00;4.00;;;;;12.53;60.56;100107.59;5000809;28;45419;-87
2022/04/06 09:41:19;;;;;;;;;4.00;4.00;;;;;13.25;60.33;100237.97;4996708;28;47155;-85
2022/04/06 09:43:45;;;;;;;;;5.25;5.25;;;;;13.25;60.18;100227.41;5006551;28;45267;-84
2022/04/06 09:49:14;;;;;;;;;2.75;2.75;;;;;13.40;60.10;100235.59;4994846;28;45304;-82
2022/04/06 09:51:43;;;;;;;;;2.50;2.25;;;;;13.51;59.98;100243.69;4998825;28;45502;-85
2022/04/06 09:54:13;;;;;;;;;7.75;5.25;;;;;13.58;59.79;100227.94;5009953;28;45387;-83
2022/04/06 09:56:40;;;;;;;;;3.50;2.75;;;;;13.50;59.79;100219.03;4984016;28;45179;-82
2022/04/06 09:59:06;;;;;;;;;2.50;2.50;;;;;13.49;59.08;100235.72;4989592;28;45619;-83
2022/04/06 10:01:35;;;;;;;;;3.25;3.00;;;;;13.47;59.45;100231.28;4998305;28;45734;-85
2022/04/06 10:04:10;;;;;;;;;4.00;3.00;;;;;13.37;59.15;100227.63;5006054;28;45634;-84
2022/04/06 10:06:41;;;;;;;;;3.00;3.00;;;;;13.30;59.26;100231.94;5003123;28;45750;-85
2022/04/06 10:09:09;;;;;;;;;4.25;3.25;;;;;13.13;59.52;100193.81;4989635;28;45139;-85
2022/04/06 10:11:36;;;;;;;;;7.00;5.75;;;;;13.37;60.03;100209.16;5008973;28;45789;-85
2022/04/06 10:14:04;;;;;;;;;2.75;2.50;;;;;13.32;59.49;100172.13;5005266;28;45529;-84
2022/04/06 10:16:30;;;;;;;;;3.00;3.00;;;;;13.53;59.38;100199.69;5000317;28;45277;-85
2022/04/06 10:18:57;;;;;;;;;3.75;3.75;;;;;13.35;58.77;100171.31;5008827;28;45707;-85
2022/04/06 10:21:53;;;;;;;;;3.00;3.00;;;;;13.63;58.70;100209.50;5007309;28;45203;-85
2022/04/06 10:24:31;;;;;;;;;4.25;3.00;;;;;13.39;58.85;100147.56;5008867;28;45778;-85
2022/04/06 10:27:23;;;;;;;;;4.25;4.00;;;;;13.88;58.19;100210.72;5000700;28;45129;-86
2022/04/06 10:30:07;;;;;;;;;4.00;3.25;;;;;13.88;58.01;100198.38;5005093;28;45544;-85
2022/04/06 10:32:38;;;;;;;;;4.75;3.75;;;;;13.82;57.91;100189.50;5001085;28;45560;-83
2022/04/06 10:35:22;;;;;;;;;3.00;2.75;;;;;13.87;57.96;100203.66;4993877;28;45532;-87
2022/04/06 10:37:56;;;;;;;;;2.00;2.00;;;;;13.83;58.06;100197.44;5006990;28;45218;-86
2022/04/06 10:40:23;;;;;;;;;4.75;4.25;;;;;13.87;57.96;100193.97;4997795;28;46416;-84
2022/04/06 10:42:49;;;;;;;;;4.50;4.00;;;;;13.78;57.95;100175.38;5009154;28;45267;-85
2022/04/06 10:45:29;;;;;;;;;4.75;4.50;;;;;13.81;57.71;100183.34;5006715;28;45295;-85
2022/04/06 10:48:13;;;;;;;;;5.25;4.00;;;;;13.83;58.40;100181.59;5003173;28;45314;-82
2022/04/06 10:50:44;;;;;;;;;5.25;4.00;;;;;13.96;58.17;100182.66;5007277;28;45057;-84
2022/04/06 10:53:18;;;;;;;;;6.50;6.50;;;;;14.05;57.68;100172.19;4988797;28;46988;-83
2022/04/06 10:56:03;;;;;;;;;7.00;6.50;;;;;14.02;57.76;100135.16;5004067;28;45791;-83
2022/04/06 10:58:57;;;;;;;;;4.00;4.00;;;;;14.47;57.94;100152.34;5003727;28;45400;-84
2022/04/06 11:01:30;;;;;;;;;5.75;5.00;;;;;14.72;56.81;100156.09;4988300;28;45253;-85
2022/04/06 11:04:04;;;;;;;;;7.00;5.00;;;;;14.56;56.96;100133.06;5000967;28;45411;-86
2022/04/06 11:06:44;;;;;;;;;5.25;4.00;;;;;14.53;56.39;100127.72;5004017;28;45690;-84
2022/04/06 11:12:21;;;;;;;;;5.00;5.00;;;;;14.00;56.35;100065.56;5006245;28;45342;-83
2022/04/06 11:15:09;;;;;;;;;5.25;5.25;;;;;14.30;56.91;100135.44;5002278;28;45929;-82
2022/04/06 11:17:41;;;;;;;;;5.25;5.00;;;;;14.25;56.63;100132.75;4987341;28;45609;-84
2022/04/06 11:20:30;;;;;;;;;4.25;4.00;;;;;13.88;57.01;100068.06;4996105;28;45646;-85
2022/04/06 11:22:57;;;;;;;;;6.25;5.50;;;;;14.11;57.06;100116.75;4974127;28;45500;-84
2022/04/06 11:25:25;;;;;;;;;7.00;5.50;;;;;14.15;56.78;100120.31;4995797;28;45522;-84
2022/04/06 11:27:51;;;;;;;;;6.00;6.00;;;;;13.48;57.36;100017.47;4996319;28;45756;-84
2022/04/06 11:30:19;;;;;;;;;5.50;4.75;;;;;14.10;57.77;100112.34;4990374;28;45011;-85
2022/04/06 11:32:53;;;;;;;;;5.00;5.00;;;;;13.88;57.44;100053.09;4993328;28;45496;-85
2022/04/06 11:35:19;;;;;;;;;6.00;6.00;;;;;14.25;57.44;100110.72;4984577;28;47628;-84
2022/04/06 11:37:47;;;;;;;;;7.25;6.25;;;;;13.69;57.12;100024.72;4996529;28;45757;-85